createdAt,value
2022-11-07T00:02:16.922Z,1.00
2022-11-07T00:04:46.824Z,1.52
2022-11-07T00:07:14.973Z,1.55
2022-11-07T00:09:42.989Z,1.40
2022-11-07T00:12:11.046Z,2.20
2022-11-07T00:14:39.134Z,2.35
2022-11-07T00:17:09.789Z,1.27
2022-11-07T00:19:37.934Z,1.95
2022-11-07T00:22:07.347Z,2.20
2022-11-07T00:24:35.411Z,2.42
2022-11-07T00:27:03.500Z,2.03
2022-11-07T00:29:31.626Z,1.55
2022-11-07T00:31:59.936Z,1.85
2022-11-07T00:34:27.973Z,1.83
2022-11-07T00:36:56.044Z,1.65
2022-11-07T00:39:25.482Z,2.25
2022-11-07T00:41:53.524Z,1.65
2022-11-07T00:44:22.732Z,3.22
2022-11-07T00:46:50.789Z,1.52
2022-11-07T00:49:19.051Z,1.38
2022-11-07T00:51:47.151Z,1.50
2022-11-07T00:54:15.169Z,1.83
2022-11-07T00:56:44.624Z,1.40
2022-11-07T00:59:12.739Z,1.52
2022-11-07T01:01:40.994Z,1.67
2022-11-07T01:04:30.641Z,1.67
2022-11-07T01:06:58.682Z,1.88
2022-11-07T01:09:27.830Z,2.85
2022-11-07T01:11:57.280Z,2.47
2022-11-07T01:14:26.180Z,1.60
2022-11-07T01:16:54.330Z,2.15
2022-11-07T01:19:22.790Z,1.48
2022-11-07T01:21:51.083Z,1.60
2022-11-07T01:24:19.814Z,1.52
2022-11-07T01:26:48.873Z,1.88
2022-11-07T01:29:20.605Z,1.77
2022-11-07T01:31:49.338Z,1.70
2022-11-07T01:34:18.561Z,1.35
2022-11-07T01:36:46.854Z,1.85
2022-11-07T01:39:15.518Z,1.30
2022-11-07T01:41:44.088Z,2.97
2022-11-07T01:44:54.326Z,1.30
2022-11-07T01:47:26.556Z,1.42
2022-11-07T01:49:57.375Z,1.92
2022-11-07T01:52:32.369Z,2.05
2022-11-07T01:55:09.596Z,1.55
2022-11-07T01:57:44.071Z,1.08
2022-11-07T02:00:18.190Z,1.52
2022-11-07T02:02:49.522Z,1.60
2022-11-07T02:05:28.366Z,2.28
2022-11-07T02:07:57.855Z,1.13
2022-11-07T02:10:27.857Z,3.10
2022-11-07T02:12:59.852Z,2.50
2022-11-07T02:15:29.660Z,1.25
2022-11-07T02:17:58.670Z,1.63
2022-11-07T02:20:26.924Z,1.55
2022-11-07T02:22:58.641Z,1.77
2022-11-07T02:25:28.364Z,2.05
2022-11-07T02:28:00.967Z,1.48
2022-11-07T02:30:33.792Z,2.22
2022-11-07T02:33:01.907Z,2.63
2022-11-07T02:35:39.040Z,1.95
2022-11-07T02:40:41.224Z,1.73
2022-11-07T02:43:13.243Z,3.17
2022-11-07T02:45:45.942Z,1.00
2022-11-07T02:48:14.615Z,1.67
2022-11-07T02:50:43.063Z,1.05
2022-11-07T02:53:11.472Z,1.30
2022-11-07T02:55:41.044Z,2.33
2022-11-07T02:58:09.085Z,2.00
2022-11-07T03:00:37.201Z,1.35
2022-11-07T03:03:05.420Z,1.55
2022-11-07T03:05:33.471Z,2.13
2022-11-07T03:08:01.622Z,1.60
2022-11-07T03:10:29.688Z,1.67
2022-11-07T03:12:59.485Z,1.65
2022-11-07T03:15:27.656Z,2.33
2022-11-07T03:17:55.914Z,1.55
2022-11-07T03:20:23.952Z,2.35
2022-11-07T03:22:51.992Z,2.45
2022-11-07T03:25:20.246Z,2.25
2022-11-07T03:27:48.830Z,3.00
2022-11-07T03:30:19.001Z,1.48
2022-11-07T03:32:47.186Z,3.05
2022-11-07T03:35:15.484Z,1.60
2022-11-07T03:37:47.332Z,2.80
2022-11-07T03:40:16.257Z,3.03
2022-11-07T03:42:46.346Z,1.70
2022-11-07T03:45:18.381Z,1.90
2022-11-07T03:47:47.834Z,3.15
2022-11-07T03:50:19.497Z,2.83
2022-11-07T03:52:48.697Z,2.42
2022-11-07T03:55:18.575Z,2.47
2022-11-07T03:57:46.987Z,1.42
2022-11-07T04:00:18.629Z,3.05
2022-11-07T04:02:46.802Z,1.30
2022-11-07T04:05:14.948Z,1.75
2022-11-07T04:07:42.963Z,2.53
2022-11-07T04:10:11.032Z,2.63
2022-11-07T04:12:56.600Z,2.38
2022-11-07T04:15:43.500Z,2.63
2022-11-07T04:18:11.578Z,1.15
2022-11-07T04:20:39.624Z,1.67
2022-11-07T04:23:07.684Z,2.17
2022-11-07T04:25:53.087Z,2.25
2022-11-07T04:28:23.137Z,2.13
2022-11-07T04:30:52.821Z,1.60
2022-11-07T04:33:20.926Z,1.88
2022-11-07T04:35:48.966Z,1.38
2022-11-07T04:38:17.064Z,1.65
2022-11-07T04:40:45.110Z,1.15
2022-11-07T04:43:13.474Z,2.15
2022-11-07T04:45:42.323Z,2.33
2022-11-07T04:48:12.797Z,1.08
2022-11-07T04:50:41.295Z,2.17
2022-11-07T04:53:13.344Z,2.30
2022-11-07T04:55:41.989Z,1.58
2022-11-07T04:58:10.217Z,1.40
2022-11-07T05:00:38.600Z,1.45
2022-11-07T05:03:06.793Z,1.65
2022-11-07T05:05:36.347Z,1.10
2022-11-07T05:08:04.573Z,2.10
2022-11-07T05:10:32.907Z,1.30
2022-11-07T05:13:01.263Z,2.10
2022-11-07T05:15:29.336Z,2.10
2022-11-07T05:17:59.803Z,1.45
2022-11-07T05:20:32.402Z,1.50
2022-11-07T05:23:19.364Z,4.72
2022-11-07T05:25:50.524Z,2.47
2022-11-07T05:28:30.021Z,1.90
2022-11-07T05:31:05.327Z,1.00
2022-11-07T05:33:33.877Z,1.38
2022-11-07T05:36:11.722Z,1.60
2022-11-07T05:38:44.598Z,2.88
2022-11-07T05:41:13.316Z,1.70
2022-11-07T05:43:41.737Z,2.22
2022-11-07T05:46:11.151Z,2.33
2022-11-07T05:48:40.316Z,2.50
2022-11-07T05:51:10.143Z,2.17
2022-11-07T05:53:38.404Z,1.40
2022-11-07T05:56:08.747Z,1.85
2022-11-07T05:58:37.169Z,1.67
2022-11-07T06:01:07.491Z,1.52
2022-11-07T06:03:36.396Z,1.75
2022-11-07T06:06:05.590Z,1.65
2022-11-07T06:08:35.868Z,2.15
2022-11-07T06:11:09.090Z,2.40
2022-11-07T06:13:37.655Z,1.85
2022-11-07T06:16:06.966Z,1.92
2022-11-07T06:18:41.388Z,1.58
2022-11-07T06:21:10.142Z,2.88
2022-11-07T06:23:38.448Z,2.83
2022-11-07T06:26:08.763Z,1.77
2022-11-07T06:28:37.705Z,2.28
2022-11-07T06:31:07.446Z,1.88
2022-11-07T06:33:36.160Z,2.88
2022-11-07T06:36:11.532Z,1.58
2022-11-07T06:38:41.194Z,1.42
2022-11-07T06:41:13.803Z,2.67
2022-11-07T06:43:43.056Z,1.33
2022-11-07T06:46:17.364Z,2.13
2022-11-07T06:48:45.819Z,2.95
2022-11-07T06:51:14.155Z,1.65
2022-11-07T06:53:42.445Z,2.05
2022-11-07T06:56:19.693Z,3.13
2022-11-07T06:58:48.091Z,3.03
2022-11-07T07:01:17.036Z,3.25
2022-11-07T07:03:45.661Z,2.00
2022-11-07T07:06:19.965Z,2.05
2022-11-07T07:08:48.762Z,1.40
2022-11-07T07:11:20.378Z,4.10
2022-11-07T07:13:48.675Z,3.28
2022-11-07T07:16:16.900Z,3.35
2022-11-07T07:18:45.114Z,2.03
2022-11-07T07:21:15.789Z,2.15
2022-11-07T07:23:43.999Z,3.35
2022-11-07T07:26:17.549Z,2.53
2022-11-07T07:28:46.117Z,1.73
2022-11-07T07:31:24.517Z,3.60
2022-11-07T07:33:53.111Z,2.05
2022-11-07T07:36:21.964Z,2.50
2022-11-07T07:38:51.663Z,1.83
2022-11-07T07:41:21.673Z,2.83
2022-11-07T07:43:50.109Z,3.03
2022-11-07T07:46:25.625Z,2.38
2022-11-07T07:48:54.038Z,1.85
2022-11-07T07:51:23.165Z,1.98
2022-11-07T07:53:51.724Z,2.47
2022-11-07T07:56:21.539Z,2.33
2022-11-07T07:58:50.486Z,2.00
2022-11-07T08:01:18.788Z,1.65
2022-11-07T08:04:01.311Z,1.55
2022-11-07T08:06:31.271Z,2.38
2022-11-07T08:09:00.065Z,2.03
2022-11-07T08:11:29.812Z,2.95
2022-11-07T08:14:01.239Z,1.90
2022-11-07T08:16:30.342Z,3.03
2022-11-07T08:18:58.892Z,1.52
2022-11-07T08:21:28.128Z,2.20
2022-11-07T08:23:56.792Z,2.75
2022-11-07T08:26:26.232Z,1.83
2022-11-07T08:28:56.916Z,2.45
2022-11-07T08:31:25.476Z,1.77
2022-11-07T08:33:54.663Z,1.58
2022-11-07T08:36:23.526Z,2.33
2022-11-07T08:38:51.990Z,2.35
2022-11-07T08:41:22.547Z,1.92
2022-11-07T08:43:51.244Z,2.03
2022-11-07T08:46:21.943Z,1.77
2022-11-07T08:48:51.138Z,1.65
2022-11-07T08:51:20.180Z,2.40
2022-11-07T08:53:48.690Z,1.95
2022-11-07T08:56:17.213Z,2.40
2022-11-07T08:58:45.594Z,2.60
2022-11-07T09:01:14.102Z,1.30
2022-11-07T09:03:53.005Z,1.55
2022-11-07T09:06:23.955Z,1.63
2022-11-07T09:08:52.695Z,2.20
2022-11-07T09:11:25.106Z,2.40
2022-11-07T09:13:54.356Z,2.35
2022-11-07T09:16:25.608Z,2.10
2022-11-07T09:18:55.579Z,1.23
2022-11-07T09:21:25.828Z,1.60
2022-11-07T09:23:56.235Z,2.63
2022-11-07T09:26:28.949Z,3.05
2022-11-07T09:29:01.424Z,1.60
2022-11-07T09:31:35.033Z,1.50
2022-11-07T09:34:09.605Z,1.52
2022-11-07T09:36:38.637Z,2.83
2022-11-07T09:39:07.436Z,1.10
2022-11-07T09:41:53.203Z,1.30
2022-11-07T09:45:00.650Z,1.88
2022-11-07T09:47:39.126Z,2.42
2022-11-07T09:50:17.401Z,3.35
2022-11-07T09:52:53.642Z,1.35
2022-11-07T09:55:32.102Z,1.03
2022-11-07T09:58:06.645Z,2.47
2022-11-07T10:00:45.144Z,1.30
2022-11-07T10:03:17.019Z,3.78
2022-11-07T10:06:02.060Z,1.58
2022-11-07T10:08:44.459Z,1.60
2022-11-07T10:11:31.088Z,2.35
2022-11-07T10:14:17.204Z,1.47
2022-11-07T10:17:04.443Z,2.30
2022-11-07T10:20:19.271Z,1.42
2022-11-07T10:23:08.842Z,2.10
2022-11-07T10:25:45.815Z,2.15
2022-11-07T10:30:50.983Z,1.52
2022-11-07T10:33:38.495Z,1.52
2022-11-07T10:38:44.560Z,1.55
2022-11-07T10:41:34.586Z,1.25
2022-11-07T10:44:08.005Z,1.88
2022-11-07T10:46:42.164Z,2.30
2022-11-07T10:49:22.288Z,2.40
2022-11-07T10:51:51.865Z,2.72
2022-11-07T10:54:30.743Z,1.90
2022-11-07T10:57:05.838Z,1.33
2022-11-07T10:59:38.362Z,1.30
2022-11-07T11:02:22.596Z,1.80
2022-11-07T11:04:56.805Z,1.40
2022-11-07T11:07:34.248Z,2.10
2022-11-07T11:10:18.322Z,2.15
2022-11-07T11:12:48.764Z,3.22
2022-11-07T11:15:22.502Z,2.10
2022-11-07T11:18:01.772Z,1.25
2022-11-07T11:20:39.376Z,1.73
2022-11-07T11:23:20.695Z,2.20
2022-11-07T11:25:53.518Z,1.85
2022-11-07T11:28:31.210Z,2.17
2022-11-07T11:31:04.529Z,1.15
2022-11-07T11:33:43.563Z,1.55
2022-11-07T11:36:19.544Z,1.75
2022-11-07T11:38:54.913Z,1.37
2022-11-07T11:41:34.059Z,1.15
2022-11-07T11:44:13.548Z,1.25
2022-11-07T11:46:53.865Z,1.40
2022-11-07T11:49:30.275Z,1.05
2022-11-07T11:52:04.545Z,1.00
2022-11-07T11:54:33.048Z,1.00
2022-11-07T11:57:10.238Z,1.58
2022-11-07T12:00:07.485Z,1.25
2022-11-07T12:03:03.134Z,0.90
2022-11-07T12:06:04.749Z,1.30
2022-11-07T12:09:26.046Z,0.88
2022-11-07T12:12:17.293Z,0.88
2022-11-07T12:15:16.050Z,1.35
2022-11-07T12:17:52.758Z,0.85
2022-11-07T12:20:29.894Z,1.08
2022-11-07T12:23:21.349Z,1.92
2022-11-07T12:26:03.772Z,1.33
2022-11-07T12:28:50.346Z,1.15
2022-11-07T12:31:38.941Z,1.10
2022-11-07T12:34:24.021Z,1.00
2022-11-07T12:37:23.274Z,1.63
2022-11-07T12:40:13.488Z,1.35
2022-11-07T12:43:01.362Z,0.98
2022-11-07T12:45:47.582Z,0.90
2022-11-07T12:49:05.893Z,1.40
2022-11-07T12:51:51.068Z,0.95
2022-11-07T12:54:45.256Z,1.10
2022-11-07T12:57:21.422Z,1.13
2022-11-07T12:59:59.319Z,1.70
2022-11-07T13:02:57.297Z,0.82
2022-11-07T13:08:21.998Z,3.00
2022-11-07T13:11:00.663Z,2.13
2022-11-07T13:13:49.222Z,1.30
2022-11-07T13:16:31.249Z,1.20
2022-11-07T13:19:12.013Z,1.42
2022-11-07T13:21:44.547Z,1.52
2022-11-07T13:24:26.134Z,1.63
2022-11-07T13:26:54.401Z,0.73
2022-11-07T13:29:37.807Z,2.50
2022-11-07T13:32:12.377Z,1.10
2022-11-07T13:34:48.562Z,2.45
2022-11-07T13:37:25.003Z,1.10
2022-11-07T13:40:04.586Z,1.05
2022-11-07T13:42:36.870Z,2.10
2022-11-07T13:45:26.275Z,1.67
2022-11-07T13:48:00.502Z,1.08
2022-11-07T13:50:42.204Z,1.48
2022-11-07T13:53:20.361Z,2.78
2022-11-07T13:55:58.678Z,1.80
2022-11-07T13:58:30.987Z,0.63
2022-11-07T14:01:09.994Z,2.28
2022-11-07T14:03:38.352Z,1.30
2022-11-07T14:06:09.094Z,2.17
2022-11-07T14:08:41.846Z,1.35
2022-11-07T14:11:19.766Z,1.27
2022-11-07T14:13:52.077Z,1.50
2022-11-07T14:16:24.768Z,2.10
2022-11-07T14:18:59.285Z,2.03
2022-11-07T14:21:32.298Z,1.17
2022-11-07T14:24:01.198Z,0.95
2022-11-07T14:26:32.913Z,1.17
2022-11-07T14:29:02.393Z,1.20
2022-11-07T14:31:33.246Z,1.85
2022-11-07T14:34:04.290Z,1.83
2022-11-07T14:36:35.598Z,1.95
2022-11-07T14:39:14.370Z,1.40
2022-11-07T14:41:45.957Z,2.17
2022-11-07T14:44:20.446Z,1.35
2022-11-07T14:46:50.241Z,2.33
2022-11-07T14:49:27.371Z,2.08
2022-11-07T14:51:57.657Z,1.05
2022-11-07T14:54:34.167Z,1.83
2022-11-07T14:57:03.631Z,2.80
2022-11-07T14:59:35.502Z,1.58
2022-11-07T15:02:24.787Z,1.35
2022-11-07T15:04:56.669Z,1.52
2022-11-07T15:07:32.834Z,1.95
2022-11-07T15:10:15.934Z,1.23
2022-11-07T15:12:52.735Z,0.98
2022-11-07T15:15:24.494Z,1.30
2022-11-07T15:17:56.460Z,2.70
2022-11-07T15:20:36.529Z,1.85
2022-11-07T15:23:27.883Z,2.88
2022-11-07T15:25:59.637Z,3.00
2022-11-07T15:28:30.025Z,1.80
2022-11-07T15:31:01.564Z,1.83
2022-11-07T15:33:33.713Z,1.27
2022-11-07T15:36:02.979Z,1.90
2022-11-07T15:38:32.523Z,1.90
2022-11-07T15:41:00.653Z,1.35
2022-11-07T15:43:28.768Z,0.95
2022-11-07T15:45:58.384Z,1.10
2022-11-07T15:48:38.298Z,1.30
2022-11-07T15:51:10.157Z,1.10
2022-11-07T15:53:39.708Z,1.80
2022-11-07T15:56:12.708Z,1.00
2022-11-07T15:58:41.564Z,1.77
2022-11-07T16:01:10.505Z,1.80
2022-11-07T16:03:39.072Z,2.70
2022-11-07T16:06:20.711Z,1.27
2022-11-07T16:08:50.500Z,2.15
2022-11-07T16:11:18.904Z,2.30
2022-11-07T16:13:47.296Z,2.05
2022-11-07T16:16:22.541Z,3.03
2022-11-07T16:18:54.502Z,1.92
2022-11-07T16:21:23.443Z,1.85
2022-11-07T16:23:53.088Z,1.30
2022-11-07T16:26:28.656Z,1.48
2022-11-07T16:28:56.737Z,3.00
2022-11-07T16:31:25.059Z,1.88
2022-11-07T16:33:53.620Z,2.67
2022-11-07T16:36:25.958Z,1.83
2022-11-07T16:38:55.978Z,2.17
2022-11-07T16:41:24.801Z,1.98
2022-11-07T16:43:52.960Z,1.55
2022-11-07T16:46:24.164Z,1.77
2022-11-07T16:48:56.429Z,1.17
2022-11-07T16:51:24.517Z,2.10
2022-11-07T16:53:52.677Z,1.52
2022-11-07T16:56:30.233Z,2.00
2022-11-07T16:58:59.031Z,1.50
2022-11-07T17:01:28.773Z,2.83
2022-11-07T17:03:56.859Z,1.58
2022-11-07T17:06:31.848Z,2.72
2022-11-07T17:09:08.750Z,1.58
2022-11-07T17:11:40.396Z,2.22
2022-11-07T17:14:08.600Z,1.67
2022-11-07T17:16:37.006Z,1.92
2022-11-07T17:19:06.028Z,2.40
2022-11-07T17:21:37.211Z,2.20
2022-11-07T17:24:06.507Z,2.47
2022-11-07T17:26:38.888Z,2.33
2022-11-07T17:29:13.242Z,2.72
2022-11-07T17:31:42.093Z,1.70
2022-11-07T17:34:11.585Z,1.50
2022-11-07T17:36:46.041Z,1.60
2022-11-07T17:39:16.904Z,2.30
2022-11-07T17:41:47.221Z,1.70
2022-11-07T17:44:17.946Z,1.80
2022-11-07T17:46:49.937Z,1.75
2022-11-07T17:49:21.901Z,1.98
2022-11-07T17:51:52.683Z,2.38
2022-11-07T17:54:24.131Z,2.15
2022-11-07T17:56:56.312Z,2.17
2022-11-07T17:59:25.720Z,2.22
2022-11-07T18:01:53.833Z,3.00
2022-11-07T18:04:22.023Z,14.30
2022-11-07T18:06:50.011Z,5.30
2022-11-07T18:09:18.119Z,5.85
2022-11-07T18:11:46.675Z,2.97
2022-11-07T18:14:15.777Z,2.17
2022-11-07T18:16:45.223Z,3.03
2022-11-07T18:19:14.764Z,3.20
2022-11-07T18:21:42.814Z,2.10
2022-11-07T18:24:11.325Z,1.95
2022-11-07T18:26:39.939Z,2.13
2022-11-07T18:29:11.108Z,2.08
2022-11-07T18:31:41.286Z,3.05
2022-11-07T18:34:14.956Z,1.95
2022-11-07T18:36:46.650Z,2.05
2022-11-07T18:39:18.056Z,2.58
2022-11-07T18:41:46.318Z,2.95
2022-11-07T18:44:15.593Z,1.95
2022-11-07T18:46:44.061Z,2.55
2022-11-07T18:49:16.037Z,2.53
2022-11-07T18:51:44.326Z,1.70
2022-11-07T18:54:14.336Z,1.80
2022-11-07T18:56:43.888Z,1.80
2022-11-07T18:59:12.809Z,2.10
2022-11-07T19:01:41.301Z,1.60
2022-11-07T19:04:11.438Z,1.38
2022-11-07T19:06:55.769Z,1.50
2022-11-07T19:09:27.256Z,1.73
2022-11-07T19:11:55.390Z,1.30
2022-11-07T19:14:23.816Z,1.90
2022-11-07T19:16:52.068Z,1.75
2022-11-07T19:19:20.225Z,1.30
2022-11-07T19:21:49.957Z,1.70
2022-11-07T19:24:18.163Z,1.35
2022-11-07T19:26:46.297Z,1.48
2022-11-07T19:29:14.409Z,1.70
2022-11-07T19:31:42.458Z,1.00
2022-11-07T19:34:10.985Z,0.82
2022-11-07T19:36:39.142Z,1.38
2022-11-07T19:39:08.768Z,0.77
2022-11-07T19:41:36.900Z,1.05
2022-11-07T19:44:05.265Z,1.98
2022-11-07T19:46:33.509Z,1.48
2022-11-07T19:49:01.682Z,1.60
2022-11-07T19:51:29.889Z,1.98
2022-11-07T19:54:00.629Z,1.23
2022-11-07T19:56:33.098Z,1.63
2022-11-07T19:59:02.296Z,1.30
2022-11-07T20:01:34.231Z,2.58
2022-11-07T20:04:03.898Z,2.55
2022-11-07T20:06:36.529Z,2.50
2022-11-07T20:09:07.135Z,1.70
2022-11-07T20:11:40.683Z,3.28
2022-11-07T20:14:08.959Z,1.95
2022-11-07T20:16:37.876Z,2.17
2022-11-07T20:19:06.631Z,2.13
2022-11-07T20:21:34.971Z,1.80
2022-11-07T20:24:03.365Z,2.03
2022-11-07T20:26:33.639Z,1.48
2022-11-07T20:29:04.370Z,2.47
2022-11-07T20:31:36.827Z,2.10
2022-11-07T20:34:08.226Z,1.83
2022-11-07T20:36:36.932Z,2.00
2022-11-07T20:39:06.144Z,2.20
2022-11-07T20:41:35.415Z,2.60
2022-11-07T20:44:08.474Z,2.80
2022-11-07T20:46:41.676Z,2.40
2022-11-07T20:49:14.230Z,3.00
2022-11-07T20:51:44.174Z,2.75
2022-11-07T20:54:14.848Z,2.00
2022-11-07T20:56:43.948Z,2.38
2022-11-07T20:59:13.901Z,1.75
2022-11-07T21:01:42.558Z,2.35
2022-11-07T21:04:15.493Z,1.88
2022-11-07T21:06:44.120Z,2.28
2022-11-07T21:09:12.635Z,2.83
2022-11-07T21:11:42.554Z,2.83
2022-11-07T21:14:12.903Z,3.35
2022-11-07T21:16:41.132Z,3.78
2022-11-07T21:19:09.391Z,3.13
2022-11-07T21:21:37.528Z,2.70
2022-11-07T21:24:06.154Z,3.35
2022-11-07T21:26:38.837Z,3.28
2022-11-07T21:29:10.969Z,3.67
2022-11-07T21:31:41.833Z,2.78
2022-11-07T21:34:11.549Z,4.45
2022-11-07T21:36:40.013Z,2.97
2022-11-07T21:39:08.603Z,4.30
2022-11-07T21:41:36.769Z,4.20
2022-11-07T21:44:05.237Z,3.53
2022-11-07T21:46:34.435Z,3.97
2022-11-07T21:49:06.227Z,4.20
2022-11-07T21:51:36.424Z,3.55
2022-11-07T21:54:06.706Z,4.18
2022-11-07T21:56:37.132Z,3.63
2022-11-07T21:59:08.328Z,5.28
2022-11-07T22:01:39.203Z,3.45
2022-11-07T22:04:13.382Z,3.42
2022-11-07T22:06:44.190Z,3.45
2022-11-07T22:09:15.779Z,3.40
2022-11-07T22:11:44.725Z,4.85
2022-11-07T22:14:16.190Z,4.55
2022-11-07T22:16:44.619Z,4.20
2022-11-07T22:19:14.453Z,4.20
2022-11-07T22:21:42.940Z,6.55
2022-11-07T22:24:11.759Z,4.32
2022-11-07T22:26:39.935Z,4.88
2022-11-07T22:29:08.333Z,5.03
2022-11-07T22:31:36.468Z,5.88
2022-11-07T22:34:04.655Z,5.20
2022-11-07T22:36:34.107Z,4.43
2022-11-07T22:39:02.134Z,4.70
2022-11-07T22:41:30.581Z,5.97
2022-11-07T22:43:59.357Z,4.82
2022-11-07T22:46:31.158Z,4.95
2022-11-07T22:49:00.690Z,5.68
2022-11-07T22:51:32.369Z,5.25
2022-11-07T22:54:06.151Z,6.05
2022-11-07T22:56:38.507Z,5.95
2022-11-07T22:59:07.663Z,4.90
2022-11-07T23:01:38.469Z,5.38
2022-11-07T23:04:08.006Z,5.50
2022-11-07T23:06:36.511Z,6.15
2022-11-07T23:09:06.589Z,6.68
2022-11-07T23:11:45.949Z,6.97
2022-11-07T23:14:18.666Z,6.18
2022-11-07T23:16:49.192Z,6.10
2022-11-07T23:19:20.622Z,6.63
2022-11-07T23:21:49.445Z,5.93
2022-11-07T23:24:20.522Z,6.60
2022-11-07T23:26:48.839Z,7.22
2022-11-07T23:29:19.818Z,7.68
2022-11-07T23:31:49.938Z,7.38
2022-11-07T23:34:19.428Z,7.65
2022-11-07T23:36:47.525Z,8.63
2022-11-07T23:39:19.616Z,8.93
2022-11-07T23:41:47.950Z,7.20
2022-11-07T23:44:16.832Z,7.88
2022-11-07T23:46:59.344Z,7.03
2022-11-07T23:49:45.131Z,6.47
2022-11-07T23:52:13.225Z,7.25
2022-11-07T23:55:01.020Z,5.65
2022-11-07T23:57:34.277Z,7.43
